createdAt,value
2018-08-06T00:00:27.878Z,99.90
2018-08-06T00:02:57.073Z,99.90
2018-08-06T00:05:26.290Z,99.90
2018-08-06T00:07:56.812Z,99.90
2018-08-06T00:10:28.258Z,99.90
2018-08-06T00:12:57.720Z,99.90
2018-08-06T00:15:26.956Z,99.90
2018-08-06T00:17:56.290Z,99.90
2018-08-06T00:20:25.452Z,99.90
2018-08-06T00:22:54.620Z,99.90
2018-08-06T00:25:23.866Z,99.90
2018-08-06T00:27:53.109Z,99.90
2018-08-06T00:30:22.541Z,99.90
2018-08-06T00:32:51.740Z,99.90
2018-08-06T00:35:21.055Z,99.90
2018-08-06T00:37:50.256Z,99.90
2018-08-06T00:40:20.988Z,99.90
2018-08-06T00:42:50.686Z,99.90
2018-08-06T00:45:21.186Z,99.90
2018-08-06T00:47:50.717Z,99.90
2018-08-06T00:50:20.171Z,99.90
2018-08-06T00:52:50.057Z,99.90
2018-08-06T00:55:20.385Z,99.90
2018-08-06T00:57:49.694Z,99.90
2018-08-06T01:00:20.099Z,99.90
2018-08-06T01:02:49.299Z,99.90
2018-08-06T01:05:18.755Z,99.90
2018-08-06T01:07:48.033Z,99.90
2018-08-06T01:10:18.626Z,99.90
2018-08-06T01:12:47.962Z,99.90
2018-08-06T01:15:18.415Z,99.90
2018-08-06T01:17:47.536Z,99.90
2018-08-06T01:20:16.873Z,99.90
2018-08-06T01:22:46.589Z,99.90
2018-08-06T01:25:16.437Z,99.90
2018-08-06T01:27:45.748Z,99.90
2018-08-06T01:30:15.603Z,99.90
2018-08-06T01:32:45.012Z,99.90
2018-08-06T01:35:14.760Z,99.90
2018-08-06T01:37:44.013Z,99.90
2018-08-06T01:40:14.267Z,99.90
2018-08-06T01:42:43.554Z,99.90
2018-08-06T01:45:14.530Z,99.90
2018-08-06T01:47:43.893Z,99.90
2018-08-06T01:50:14.152Z,99.90
2018-08-06T01:52:43.636Z,99.90
2018-08-06T01:55:12.844Z,99.90
2018-08-06T01:57:42.146Z,99.90
2018-08-06T02:00:13.725Z,99.90
2018-08-06T02:02:43.001Z,99.90
2018-08-06T02:05:12.577Z,99.90
2018-08-06T02:07:41.938Z,99.90
2018-08-06T02:10:13.958Z,99.90
2018-08-06T02:12:43.988Z,99.90
2018-08-06T02:15:14.672Z,99.90
2018-08-06T02:17:43.897Z,99.90
2018-08-06T02:20:15.673Z,99.90
2018-08-06T02:22:46.184Z,99.90
2018-08-06T02:25:15.844Z,99.90
2018-08-06T02:27:45.098Z,99.90
2018-08-06T02:30:15.436Z,99.90
2018-08-06T02:32:44.935Z,99.90
2018-08-06T02:35:15.145Z,99.90
2018-08-06T02:37:44.979Z,99.90
2018-08-06T02:40:16.901Z,99.90
2018-08-06T02:42:46.660Z,99.90
2018-08-06T02:45:16.772Z,99.90
2018-08-06T02:47:46.540Z,99.90
2018-08-06T02:50:16.906Z,99.90
2018-08-06T02:52:46.208Z,99.90
2018-08-06T02:55:16.300Z,99.90
2018-08-06T02:57:45.712Z,99.90
2018-08-06T03:00:16.636Z,99.90
2018-08-06T03:02:46.803Z,99.90
2018-08-06T03:05:17.399Z,99.90
2018-08-06T03:07:47.140Z,99.90
2018-08-06T03:10:17.335Z,99.90
2018-08-06T03:12:47.172Z,99.90
2018-08-06T03:15:16.331Z,99.90
2018-08-06T03:17:45.811Z,99.90
2018-08-06T03:20:15.251Z,99.90
2018-08-06T03:22:44.532Z,99.90
2018-08-06T03:25:15.954Z,99.90
2018-08-06T03:27:45.660Z,99.90
2018-08-06T03:30:16.588Z,99.90
2018-08-06T03:32:47.099Z,99.90
2018-08-06T03:35:16.421Z,99.90
2018-08-06T03:37:45.746Z,99.90
2018-08-06T03:40:15.478Z,99.90
2018-08-06T03:42:44.808Z,99.90
2018-08-06T03:45:14.636Z,99.90
2018-08-06T03:47:44.690Z,99.90
2018-08-06T03:50:14.589Z,99.90
2018-08-06T03:52:44.132Z,99.90
2018-08-06T03:55:13.607Z,99.90
2018-08-06T03:57:43.016Z,99.90
2018-08-06T04:00:13.616Z,99.90
2018-08-06T04:02:43.308Z,99.90
2018-08-06T04:05:14.592Z,99.90
2018-08-06T04:07:44.329Z,99.90
2018-08-06T04:10:15.818Z,99.90
2018-08-06T04:12:45.146Z,99.90
2018-08-06T04:15:14.371Z,99.90
2018-08-06T04:17:44.046Z,99.90
2018-08-06T04:20:13.828Z,99.90
2018-08-06T04:22:43.776Z,99.90
2018-08-06T04:25:13.194Z,99.90
2018-08-06T04:27:42.486Z,99.90
2018-08-06T04:30:13.619Z,99.90
2018-08-06T04:32:44.428Z,99.90
2018-08-06T04:35:13.862Z,99.90
2018-08-06T04:37:43.871Z,99.90
2018-08-06T04:40:13.646Z,99.90
2018-08-06T04:42:43.400Z,99.90
2018-08-06T04:45:13.002Z,99.90
2018-08-06T04:47:42.613Z,99.90
2018-08-06T04:50:13.788Z,99.90
2018-08-06T04:52:43.799Z,99.90
2018-08-06T04:55:14.317Z,99.90
2018-08-06T04:57:43.710Z,99.90
2018-08-06T05:00:14.423Z,99.90
2018-08-06T05:05:13.204Z,99.90
2018-08-06T05:07:42.334Z,99.90
2018-08-06T05:10:11.528Z,99.90
2018-08-06T05:12:40.850Z,99.90
2018-08-06T05:15:10.085Z,99.90
2018-08-06T05:17:39.350Z,99.90
2018-08-06T05:20:09.348Z,99.90
2018-08-06T05:22:38.656Z,99.90
2018-08-06T05:25:07.949Z,99.90
2018-08-06T05:27:38.904Z,99.90
2018-08-06T05:30:09.971Z,99.90
2018-08-06T05:32:39.135Z,99.90
2018-08-06T05:35:08.630Z,99.90
2018-08-06T05:37:37.801Z,99.90
2018-08-06T05:40:08.152Z,99.90
2018-08-06T05:42:37.752Z,99.90
2018-08-06T05:45:07.789Z,99.90
2018-08-06T05:47:38.133Z,99.90
2018-08-06T05:50:09.888Z,99.90
2018-08-06T05:52:39.177Z,99.90
2018-08-06T05:55:09.237Z,99.90
2018-08-06T05:57:42.313Z,99.90
2018-08-06T06:00:17.040Z,99.90
2018-08-06T06:02:46.826Z,99.90
2018-08-06T06:07:44.939Z,99.90
2018-08-06T06:10:15.456Z,99.90
2018-08-06T06:12:44.675Z,99.90
2018-08-06T06:15:15.696Z,99.90
2018-08-06T06:17:45.184Z,99.90
2018-08-06T06:20:14.352Z,99.90
2018-08-06T06:22:43.772Z,99.90
2018-08-06T06:25:14.023Z,99.90
2018-08-06T06:27:43.608Z,99.90
2018-08-06T06:30:15.212Z,99.90
2018-08-06T06:32:44.433Z,99.90
2018-08-06T06:35:14.175Z,99.90
2018-08-06T06:37:43.586Z,99.90
2018-08-06T06:42:41.587Z,99.90
2018-08-06T06:45:11.207Z,99.90
2018-08-06T06:47:40.517Z,99.90
2018-08-06T06:50:09.888Z,99.90
2018-08-06T06:52:39.164Z,99.90
2018-08-06T06:55:11.231Z,99.90
2018-08-06T06:57:40.606Z,99.90
2018-08-06T07:00:10.920Z,99.90
2018-08-06T07:02:40.912Z,99.90
2018-08-06T07:05:10.221Z,99.90
2018-08-06T07:07:39.597Z,99.90
2018-08-06T07:10:10.714Z,98.70
2018-08-06T07:12:39.914Z,98.10
2018-08-06T07:15:12.522Z,97.60
2018-08-06T07:17:43.716Z,97.30
2018-08-06T07:20:13.219Z,97.50
2018-08-06T07:22:42.581Z,96.80
2018-08-06T07:25:12.386Z,96.70
2018-08-06T07:27:43.104Z,96.00
2018-08-06T07:30:16.564Z,94.40
2018-08-06T07:32:46.044Z,95.30
2018-08-06T07:35:15.644Z,93.60
2018-08-06T07:37:47.460Z,93.40
2018-08-06T07:40:16.660Z,93.10
2018-08-06T07:42:46.051Z,92.90
2018-08-06T07:45:18.755Z,92.30
2018-08-06T07:47:48.878Z,90.20
2018-08-06T07:50:19.395Z,90.20
2018-08-06T07:52:48.943Z,88.50
2018-08-06T07:55:18.144Z,87.60
2018-08-06T07:57:47.364Z,90.50
2018-08-06T08:00:18.135Z,90.70
2018-08-06T08:02:47.362Z,90.60
2018-08-06T08:07:47.920Z,90.20
2018-08-06T08:10:22.965Z,90.90
2018-08-06T08:12:52.258Z,90.00
2018-08-06T08:15:25.072Z,90.50
2018-08-06T08:17:55.081Z,87.90
2018-08-06T08:20:24.481Z,85.40
2018-08-06T08:22:53.625Z,82.50
2018-08-06T08:25:23.475Z,84.00
2018-08-06T08:27:52.636Z,83.30
2018-08-06T08:30:22.141Z,81.10
2018-08-06T08:32:51.484Z,84.50
2018-08-06T08:35:20.801Z,80.30
2018-08-06T08:37:50.067Z,78.30
2018-08-06T08:40:20.154Z,80.90
2018-08-06T08:42:49.384Z,75.60
2018-08-06T08:45:19.116Z,74.30
2018-08-06T08:47:48.409Z,73.80
2018-08-06T08:50:19.656Z,71.00
2018-08-06T08:52:49.080Z,70.90
2018-08-06T08:55:19.797Z,72.10
2018-08-06T08:57:50.819Z,72.70
2018-08-06T09:00:22.158Z,69.60
2018-08-06T09:02:52.506Z,68.40
2018-08-06T09:07:51.882Z,66.30
2018-08-06T09:10:21.659Z,63.40
2018-08-06T09:12:51.143Z,61.20
2018-08-06T09:15:25.160Z,59.70
2018-08-06T09:17:54.391Z,60.00
2018-08-06T09:20:24.606Z,58.20
2018-08-06T09:22:53.818Z,57.20
2018-08-06T09:25:23.028Z,55.30
2018-08-06T09:27:52.596Z,56.60
2018-08-06T09:30:23.129Z,56.60
2018-08-06T09:32:54.824Z,54.50
2018-08-06T09:35:24.340Z,55.00
2018-08-06T09:37:53.796Z,54.50
2018-08-06T09:40:23.823Z,55.80
2018-08-06T09:42:53.425Z,55.50
2018-08-06T09:45:23.245Z,55.90
2018-08-06T09:47:53.672Z,53.60
2018-08-06T09:50:23.359Z,54.60
2018-08-06T09:52:53.405Z,55.50
2018-08-06T09:55:25.047Z,54.30
2018-08-06T09:57:54.372Z,53.10
2018-08-06T10:00:28.931Z,51.50
2018-08-06T10:02:59.632Z,52.10
2018-08-06T10:05:29.208Z,51.60
2018-08-06T10:07:58.394Z,51.70
2018-08-06T10:10:27.606Z,50.90
2018-08-06T10:12:56.792Z,55.00
2018-08-06T10:15:26.107Z,54.40
2018-08-06T10:17:55.928Z,53.80
2018-08-06T10:20:26.049Z,52.80
2018-08-06T10:22:55.440Z,53.90
2018-08-06T10:25:24.714Z,53.10
2018-08-06T10:27:54.128Z,54.50
2018-08-06T10:30:23.838Z,54.00
2018-08-06T10:32:53.183Z,52.20
2018-08-06T10:35:22.352Z,53.10
2018-08-06T10:37:51.576Z,53.70
2018-08-06T10:40:22.231Z,52.50
2018-08-06T10:42:52.099Z,50.90
2018-08-06T10:45:22.439Z,51.20
2018-08-06T10:47:52.029Z,52.50
2018-08-06T10:50:21.348Z,50.70
2018-08-06T10:52:50.564Z,51.30
2018-08-06T10:55:20.115Z,51.70
2018-08-06T10:57:49.363Z,49.30
2018-08-06T11:00:19.985Z,51.30
2018-08-06T11:02:49.574Z,50.60
2018-08-06T11:05:19.679Z,50.20
2018-08-06T11:07:49.094Z,50.20
2018-08-06T11:10:19.763Z,49.60
2018-08-06T11:12:48.996Z,49.20
2018-08-06T11:15:20.397Z,50.40
2018-08-06T11:17:49.775Z,48.80
2018-08-06T11:20:19.751Z,48.30
2018-08-06T11:22:49.034Z,48.10
2018-08-06T11:25:20.117Z,49.10
2018-08-06T11:28:01.638Z,47.60
2018-08-06T11:30:30.967Z,46.70
2018-08-06T11:33:01.053Z,46.80
2018-08-06T11:35:30.246Z,49.20
2018-08-06T11:40:28.391Z,49.10
2018-08-06T11:42:58.578Z,49.00
2018-08-06T11:45:27.787Z,49.40
2018-08-06T11:47:57.150Z,49.50
2018-08-06T11:50:26.342Z,49.30
2018-08-06T11:52:55.553Z,50.80
2018-08-06T11:55:24.839Z,50.40
2018-08-06T11:57:54.160Z,48.40
2018-08-06T12:00:26.199Z,47.80
2018-08-06T12:02:55.347Z,48.20
2018-08-06T12:05:24.705Z,46.80
2018-08-06T12:07:54.051Z,48.90
2018-08-06T12:10:23.278Z,48.90
2018-08-06T12:12:52.539Z,45.70
2018-08-06T12:15:21.832Z,44.50
2018-08-06T12:17:51.101Z,46.00
2018-08-06T12:20:30.357Z,45.40
2018-08-06T12:22:59.528Z,48.10
2018-08-06T12:25:28.772Z,46.30
2018-08-06T12:30:26.604Z,46.80
2018-08-06T12:32:55.877Z,47.80
2018-08-06T12:35:25.039Z,47.80
2018-08-06T12:37:54.261Z,45.60
2018-08-06T12:40:39.336Z,46.20
2018-08-06T12:43:09.413Z,46.10
2018-08-06T12:45:38.614Z,46.80
2018-08-06T12:48:07.772Z,46.30
2018-08-06T12:50:37.071Z,45.00
2018-08-06T12:53:06.472Z,43.20
2018-08-06T12:55:35.653Z,44.10
2018-08-06T12:58:05.500Z,44.60
2018-08-06T13:00:34.856Z,42.30
2018-08-06T13:03:07.247Z,43.80
2018-08-06T13:05:36.405Z,45.00
2018-08-06T13:08:05.656Z,45.60
2018-08-06T13:10:35.152Z,44.30
2018-08-06T13:13:04.497Z,42.70
2018-08-06T13:15:34.012Z,42.80
2018-08-06T13:18:03.290Z,42.70
2018-08-06T13:20:32.591Z,43.40
2018-08-06T13:23:01.856Z,41.40
2018-08-06T13:25:31.138Z,42.00
2018-08-06T13:28:01.008Z,43.00
2018-08-06T13:30:30.221Z,44.60
2018-08-06T13:33:01.376Z,44.90
2018-08-06T13:35:30.588Z,45.50
2018-08-06T13:37:59.837Z,41.80
2018-08-06T13:40:29.163Z,40.70
2018-08-06T13:42:58.400Z,40.70
2018-08-06T13:45:27.592Z,40.00
2018-08-06T13:47:56.909Z,41.40
2018-08-06T13:50:26.968Z,42.00
2018-08-06T13:52:56.646Z,41.90
2018-08-06T13:55:26.156Z,42.50
2018-08-06T13:57:55.417Z,44.10
2018-08-06T14:00:24.638Z,43.60
2018-08-06T14:02:53.782Z,44.20
2018-08-06T14:05:22.946Z,43.60
2018-08-06T14:07:52.860Z,43.20
2018-08-06T14:10:22.080Z,42.50
2018-08-06T14:12:51.385Z,42.00
2018-08-06T14:15:20.592Z,42.40
2018-08-06T14:17:49.741Z,42.90
2018-08-06T14:20:19.176Z,43.80
2018-08-06T14:22:48.994Z,42.80
2018-08-06T14:25:18.145Z,41.90
2018-08-06T14:27:47.337Z,42.50
2018-08-06T14:30:17.456Z,42.10
2018-08-06T14:32:46.753Z,42.70
2018-08-06T14:35:23.672Z,40.50
2018-08-06T14:37:53.480Z,41.10
2018-08-06T14:40:29.044Z,39.10
2018-08-06T14:42:58.224Z,38.40
2018-08-06T14:45:27.398Z,38.50
2018-08-06T14:47:56.667Z,38.20
2018-08-06T14:50:25.811Z,38.00
2018-08-06T14:52:56.740Z,38.00
2018-08-06T14:55:25.885Z,38.90
2018-08-06T14:57:55.029Z,39.70
2018-08-06T15:00:24.176Z,39.50
2018-08-06T15:02:53.890Z,38.50
2018-08-06T15:05:23.020Z,39.10
2018-08-06T15:07:52.126Z,38.90
2018-08-06T15:10:21.256Z,38.60
2018-08-06T15:12:51.277Z,38.50
2018-08-06T15:15:20.477Z,38.20
2018-08-06T15:17:49.596Z,37.60
2018-08-06T15:20:19.502Z,38.70
2018-08-06T15:22:48.737Z,37.90
2018-08-06T15:25:21.103Z,38.80
2018-08-06T15:27:50.489Z,39.10
2018-08-06T15:30:19.795Z,40.70
2018-08-06T15:32:49.004Z,40.70
2018-08-06T15:35:18.167Z,42.50
2018-08-06T15:37:47.432Z,43.00
2018-08-06T15:40:18.381Z,42.70
2018-08-06T15:42:50.247Z,42.90
2018-08-06T15:45:19.563Z,45.60
2018-08-06T15:47:48.767Z,46.80
2018-08-06T15:50:19.596Z,50.10
2018-08-06T15:52:51.767Z,54.10
2018-08-06T15:55:21.015Z,57.60
2018-08-06T15:57:50.153Z,60.30
2018-08-06T16:00:20.149Z,63.20
2018-08-06T16:02:49.404Z,68.30
2018-08-06T16:05:18.593Z,69.80
2018-08-06T16:07:47.793Z,72.80
2018-08-06T16:10:17.272Z,74.50
2018-08-06T16:12:47.392Z,77.70
2018-08-06T16:15:17.020Z,76.30
2018-08-06T16:17:46.216Z,78.80
2018-08-06T16:20:17.642Z,80.50
2018-08-06T16:22:46.840Z,80.60
2018-08-06T16:25:16.124Z,85.00
2018-08-06T16:27:45.373Z,85.30
2018-08-06T16:30:16.637Z,85.00
2018-08-06T16:32:46.822Z,86.50
2018-08-06T16:35:17.076Z,89.70
2018-08-06T16:37:46.241Z,89.70
2018-08-06T16:40:15.445Z,89.10
2018-08-06T16:42:44.697Z,89.90
2018-08-06T16:45:13.869Z,89.70
2018-08-06T16:47:43.144Z,90.40
2018-08-06T16:50:13.695Z,90.70
2018-08-06T16:52:43.097Z,92.50
2018-08-06T16:55:12.208Z,92.80
2018-08-06T16:57:41.643Z,94.10
2018-08-06T17:00:16.915Z,94.90
2018-08-06T17:02:46.260Z,95.20
2018-08-06T17:05:15.473Z,96.00
2018-08-06T17:07:45.744Z,96.20
2018-08-06T17:10:16.355Z,96.20
2018-08-06T17:12:46.507Z,96.40
2018-08-06T17:15:16.988Z,96.80
2018-08-06T17:17:46.648Z,96.60
2018-08-06T17:20:17.567Z,96.60
2018-08-06T17:22:50.307Z,97.30
2018-08-06T17:25:19.648Z,97.10
2018-08-06T17:27:49.460Z,97.50
2018-08-06T17:30:19.548Z,97.40
2018-08-06T17:32:50.324Z,96.80
2018-08-06T17:35:19.509Z,96.20
2018-08-06T17:37:48.691Z,97.20
2018-08-06T17:40:18.930Z,97.30
2018-08-06T17:42:48.293Z,97.10
2018-08-06T17:45:21.227Z,96.90
2018-08-06T17:47:50.481Z,97.00
2018-08-06T17:50:21.026Z,96.20
2018-08-06T17:52:51.147Z,96.40
2018-08-06T17:55:21.271Z,96.00
2018-08-06T17:57:51.233Z,96.20
2018-08-06T18:00:20.743Z,96.50
2018-08-06T18:02:49.946Z,95.80
2018-08-06T18:05:19.513Z,96.10
2018-08-06T18:07:50.290Z,96.00
2018-08-06T18:10:19.580Z,96.30
2018-08-06T18:12:48.995Z,96.70
2018-08-06T18:15:18.116Z,97.10
2018-08-06T18:17:47.376Z,97.70
2018-08-06T18:20:18.586Z,97.60
2018-08-06T18:22:47.861Z,98.50
2018-08-06T18:25:18.478Z,98.50
2018-08-06T18:27:48.583Z,98.80
2018-08-06T18:30:19.959Z,99.20
2018-08-06T18:32:49.400Z,99.60
2018-08-06T18:35:19.885Z,99.90
2018-08-06T18:37:49.566Z,99.20
2018-08-06T18:40:20.035Z,99.00
2018-08-06T18:42:49.310Z,98.90
2018-08-06T18:45:19.808Z,99.20
2018-08-06T18:47:49.786Z,99.20
2018-08-06T18:50:19.948Z,99.70
2018-08-06T18:52:49.524Z,99.80
2018-08-06T18:55:19.224Z,99.70
2018-08-06T18:57:48.552Z,99.90
2018-08-06T19:00:23.237Z,99.90
2018-08-06T19:02:55.844Z,99.90
2018-08-06T19:05:25.328Z,99.90
2018-08-06T19:07:54.894Z,99.90
2018-08-06T19:10:24.198Z,99.90
2018-08-06T19:12:59.219Z,99.90
2018-08-06T19:15:28.995Z,99.90
2018-08-06T19:19:01.602Z,99.90
2018-08-06T19:21:30.880Z,99.90
2018-08-06T19:24:05.629Z,99.90
2018-08-06T19:26:34.849Z,99.90
2018-08-06T19:29:04.381Z,99.90
2018-08-06T19:31:33.895Z,99.90
2018-08-06T19:34:03.093Z,99.90
2018-08-06T19:36:37.923Z,99.90
2018-08-06T19:39:09.321Z,99.90
2018-08-06T19:41:39.554Z,99.90
2018-08-06T19:44:08.924Z,99.90
2018-08-06T19:46:38.359Z,99.90
2018-08-06T19:49:13.340Z,99.90
2018-08-06T19:51:42.833Z,99.90
2018-08-06T19:54:12.132Z,99.90
2018-08-06T19:56:41.529Z,99.90
2018-08-06T19:59:11.406Z,99.90
2018-08-06T20:01:40.454Z,99.90
2018-08-06T20:04:09.892Z,99.90
2018-08-06T20:06:39.007Z,99.90
2018-08-06T20:09:11.264Z,99.90
2018-08-06T20:11:40.596Z,99.90
2018-08-06T20:14:10.391Z,99.90
2018-08-06T20:16:39.623Z,99.90
2018-08-06T20:21:38.500Z,99.90
2018-08-06T20:26:36.739Z,99.90
2018-08-06T20:29:06.708Z,99.90
2018-08-06T20:31:35.894Z,99.90
2018-08-06T20:34:05.309Z,99.90
2018-08-06T20:36:34.508Z,99.90
2018-08-06T20:39:04.388Z,99.90
2018-08-06T20:41:33.597Z,99.90
2018-08-06T20:44:02.912Z,99.90
2018-08-06T20:46:32.189Z,99.90
2018-08-06T20:49:01.758Z,99.90
2018-08-06T20:51:31.177Z,99.90
2018-08-06T20:54:00.379Z,99.90
2018-08-06T20:56:29.846Z,99.90
2018-08-06T20:58:59.095Z,99.90
2018-08-06T21:01:28.427Z,99.90
2018-08-06T21:03:57.571Z,99.90
2018-08-06T21:06:26.769Z,99.90
2018-08-06T21:08:56.087Z,99.90
2018-08-06T21:11:25.282Z,99.90
2018-08-06T21:13:54.590Z,99.90
2018-08-06T21:16:23.682Z,99.90
2018-08-06T21:18:53.573Z,99.90
2018-08-06T21:21:22.885Z,99.90
2018-08-06T21:23:52.160Z,99.90
2018-08-06T21:26:21.370Z,99.90
2018-08-06T21:28:50.776Z,99.90
2018-08-06T21:31:20.371Z,99.90
2018-08-06T21:33:49.577Z,99.90
2018-08-06T21:36:18.904Z,99.90
2018-08-06T21:38:48.030Z,99.90
2018-08-06T21:41:17.259Z,99.90
2018-08-06T21:43:46.463Z,99.90
2018-08-06T21:46:15.637Z,99.90
2018-08-06T21:48:44.860Z,99.90
2018-08-06T21:51:14.199Z,99.90
2018-08-06T21:53:43.261Z,99.90
2018-08-06T21:58:41.169Z,99.90
2018-08-06T22:01:10.676Z,99.90
2018-08-06T22:03:40.893Z,99.90
2018-08-06T22:06:10.101Z,99.90
2018-08-06T22:08:39.587Z,99.90
2018-08-06T22:11:08.931Z,99.90
2018-08-06T22:13:38.304Z,99.90
2018-08-06T22:16:08.328Z,99.90
2018-08-06T22:18:37.626Z,99.90
2018-08-06T22:21:07.419Z,99.90
2018-08-06T22:23:36.635Z,99.90
2018-08-06T22:26:06.412Z,99.90
2018-08-06T22:28:35.795Z,99.90
2018-08-06T22:31:05.110Z,99.90
2018-08-06T22:33:34.317Z,99.90
2018-08-06T22:36:03.667Z,99.90
2018-08-06T22:38:32.832Z,99.90
2018-08-06T22:41:02.150Z,99.90
2018-08-06T22:43:31.466Z,99.90
2018-08-06T22:46:00.622Z,99.90
2018-08-06T22:48:29.839Z,99.90
2018-08-06T22:50:59.072Z,99.90
2018-08-06T22:53:28.344Z,99.90
2018-08-06T22:56:09.026Z,99.90
2018-08-06T22:58:38.811Z,99.90
2018-08-06T23:01:09.756Z,99.90
2018-08-06T23:03:38.964Z,99.90
2018-08-06T23:06:09.082Z,99.90
2018-08-06T23:08:38.486Z,99.90
2018-08-06T23:11:08.131Z,99.90
2018-08-06T23:13:37.331Z,99.90
2018-08-06T23:16:06.523Z,99.90
2018-08-06T23:18:35.717Z,99.90
2018-08-06T23:21:04.900Z,99.90
2018-08-06T23:23:34.156Z,99.90
2018-08-06T23:26:03.454Z,99.90
2018-08-06T23:28:32.735Z,99.90
2018-08-06T23:31:01.974Z,99.90
2018-08-06T23:33:31.169Z,99.90
2018-08-06T23:36:00.425Z,99.90
2018-08-06T23:38:29.647Z,99.90
2018-08-06T23:40:58.820Z,99.90
2018-08-06T23:43:28.012Z,99.90
2018-08-06T23:45:57.264Z,99.90
2018-08-06T23:48:26.593Z,99.90
2018-08-06T23:50:56.338Z,99.90
2018-08-06T23:53:25.639Z,99.90
2018-08-06T23:55:55.155Z,99.90
2018-08-06T23:58:24.429Z,99.90
